sensor_id;sensor_type;location;lat;lon;timestamp;temperature;humidity
29403;DHT22;16382;59.942;30.472;2024-03-29T00:01:59;10.00;49.50
29403;DHT22;16382;59.942;30.472;2024-03-29T00:04:36;10.00;49.00
29403;DHT22;16382;59.942;30.472;2024-03-29T00:07:23;10.00;49.50
29403;DHT22;16382;59.942;30.472;2024-03-29T00:09:58;10.10;51.80
29403;DHT22;16382;59.942;30.472;2024-03-29T00:12:53;10.20;51.50
29403;DHT22;16382;59.942;30.472;2024-03-29T00:15:58;10.10;51.00
29403;DHT22;16382;59.942;30.472;2024-03-29T00:18:44;8.60;49.00
29403;DHT22;16382;59.942;30.472;2024-03-29T00:21:10;10.30;52.30
29403;DHT22;16382;59.942;30.472;2024-03-29T00:23:43;10.00;50.00
29403;DHT22;16382;59.942;30.472;2024-03-29T00:26:10;10.20;54.40
29403;DHT22;16382;59.942;30.472;2024-03-29T00:28:38;10.00;49.70
29403;DHT22;16382;59.942;30.472;2024-03-29T00:34:58;10.10;53.60
29403;DHT22;16382;59.942;30.472;2024-03-29T00:37:41;9.80;53.50
29403;DHT22;16382;59.942;30.472;2024-03-29T00:43:03;10.30;54.60
29403;DHT22;16382;59.942;30.472;2024-03-29T00:45:45;9.90;54.00
29403;DHT22;16382;59.942;30.472;2024-03-29T00:48:29;9.80;54.10
29403;DHT22;16382;59.942;30.472;2024-03-29T00:51:23;10.50;54.40
29403;DHT22;16382;59.942;30.472;2024-03-29T00:54:21;9.50;54.00
29403;DHT22;16382;59.942;30.472;2024-03-29T00:57:33;9.80;48.20
29403;DHT22;16382;59.942;30.472;2024-03-29T01:00:31;10.00;54.30
29403;DHT22;16382;59.942;30.472;2024-03-29T01:06:07;9.10;54.80
29403;DHT22;16382;59.942;30.472;2024-03-29T01:09:40;9.20;55.20
29403;DHT22;16382;59.942;30.472;2024-03-29T01:12:30;9.30;49.80
29403;DHT22;16382;59.942;30.472;2024-03-29T01:15:27;9.70;56.10
29403;DHT22;16382;59.942;30.472;2024-03-29T01:18:16;9.20;52.90
29403;DHT22;16382;59.942;30.472;2024-03-29T01:21:28;9.10;52.00
29403;DHT22;16382;59.942;30.472;2024-03-29T01:29:20;9.10;49.10
29403;DHT22;16382;59.942;30.472;2024-03-29T01:31:47;9.30;50.40
29403;DHT22;16382;59.942;30.472;2024-03-29T01:34:22;9.20;48.70
29403;DHT22;16382;59.942;30.472;2024-03-29T01:36:55;9.50;53.60
29403;DHT22;16382;59.942;30.472;2024-03-29T01:39:24;9.20;49.90
29403;DHT22;16382;59.942;30.472;2024-03-29T01:44:33;9.90;48.70
29403;DHT22;16382;59.942;30.472;2024-03-29T01:47:18;9.20;51.50
29403;DHT22;16382;59.942;30.472;2024-03-29T01:49:53;9.20;50.80
29403;DHT22;16382;59.942;30.472;2024-03-29T01:52:54;9.40;51.00
29403;DHT22;16382;59.942;30.472;2024-03-29T01:55:24;9.20;52.70
29403;DHT22;16382;59.942;30.472;2024-03-29T01:58:08;7.20;48.80
29403;DHT22;16382;59.942;30.472;2024-03-29T02:00:55;9.30;48.30
29403;DHT22;16382;59.942;30.472;2024-03-29T02:03:28;9.30;49.40
29403;DHT22;16382;59.942;30.472;2024-03-29T02:06:03;9.40;48.30
29403;DHT22;16382;59.942;30.472;2024-03-29T02:08:32;9.30;48.90
29403;DHT22;16382;59.942;30.472;2024-03-29T02:11:03;9.00;56.20
29403;DHT22;16382;59.942;30.472;2024-03-29T02:13:42;9.40;48.50
29403;DHT22;16382;59.942;30.472;2024-03-29T02:16:20;9.70;56.20
29403;DHT22;16382;59.942;30.472;2024-03-29T02:18:56;9.40;51.80
29403;DHT22;16382;59.942;30.472;2024-03-29T02:21:29;9.40;51.00
29403;DHT22;16382;59.942;30.472;2024-03-29T02:24:08;9.50;49.30
29403;DHT22;16382;59.942;30.472;2024-03-29T02:26:49;9.70;49.10
29403;DHT22;16382;59.942;30.472;2024-03-29T02:29:31;9.80;49.80
29403;DHT22;16382;59.942;30.472;2024-03-29T02:32:08;9.80;51.90
29403;DHT22;16382;59.942;30.472;2024-03-29T02:34:55;9.50;50.60
29403;DHT22;16382;59.942;30.472;2024-03-29T02:37:22;9.50;51.90
29403;DHT22;16382;59.942;30.472;2024-03-29T02:39:54;9.60;48.40
29403;DHT22;16382;59.942;30.472;2024-03-29T02:42:39;9.50;50.90
29403;DHT22;16382;59.942;30.472;2024-03-29T02:45:11;9.60;51.80
29403;DHT22;16382;59.942;30.472;2024-03-29T02:47:55;9.60;51.30
29403;DHT22;16382;59.942;30.472;2024-03-29T02:50:35;9.70;52.20
29403;DHT22;16382;59.942;30.472;2024-03-29T02:53:10;9.50;49.90
29403;DHT22;16382;59.942;30.472;2024-03-29T02:55:42;9.50;49.60
29403;DHT22;16382;59.942;30.472;2024-03-29T02:58:09;9.60;50.20
29403;DHT22;16382;59.942;30.472;2024-03-29T03:00:41;9.50;51.20
29403;DHT22;16382;59.942;30.472;2024-03-29T03:03:15;9.40;49.80
29403;DHT22;16382;59.942;30.472;2024-03-29T03:05:49;9.60;51.20
29403;DHT22;16382;59.942;30.472;2024-03-29T03:08:23;9.60;51.20
29403;DHT22;16382;59.942;30.472;2024-03-29T03:11:10;9.50;51.50
29403;DHT22;16382;59.942;30.472;2024-03-29T03:13:39;9.60;50.00
29403;DHT22;16382;59.942;30.472;2024-03-29T03:16:09;9.50;52.00
29403;DHT22;16382;59.942;30.472;2024-03-29T03:18:37;9.10;57.50
29403;DHT22;16382;59.942;30.472;2024-03-29T03:21:06;9.90;57.00
29403;DHT22;16382;59.942;30.472;2024-03-29T03:23:34;9.40;50.40
29403;DHT22;16382;59.942;30.472;2024-03-29T03:26:01;9.70;57.30
29403;DHT22;16382;59.942;30.472;2024-03-29T03:28:32;9.40;50.50
29403;DHT22;16382;59.942;30.472;2024-03-29T03:30:58;9.60;57.60
29403;DHT22;16382;59.942;30.472;2024-03-29T03:33:26;9.40;50.90
29403;DHT22;16382;59.942;30.472;2024-03-29T03:35:53;9.30;57.70
29403;DHT22;16382;59.942;30.472;2024-03-29T03:38:20;9.40;51.00
29403;DHT22;16382;59.942;30.472;2024-03-29T03:43:15;9.40;50.50
29403;DHT22;16382;59.942;30.472;2024-03-29T03:45:43;9.50;51.10
29403;DHT22;16382;59.942;30.472;2024-03-29T03:48:11;9.50;51.20
29403;DHT22;16382;59.942;30.472;2024-03-29T03:50:38;9.40;52.10
29403;DHT22;16382;59.942;30.472;2024-03-29T03:53:07;9.50;51.20
29403;DHT22;16382;59.942;30.472;2024-03-29T03:55:36;9.40;51.40
29403;DHT22;16382;59.942;30.472;2024-03-29T03:58:03;9.50;51.50
29403;DHT22;16382;59.942;30.472;2024-03-29T04:00:30;9.50;51.40
29403;DHT22;16382;59.942;30.472;2024-03-29T04:02:59;9.40;52.40
29403;DHT22;16382;59.942;30.472;2024-03-29T04:05:25;9.50;51.70
29403;DHT22;16382;59.942;30.472;2024-03-29T04:07:53;9.50;51.70
29403;DHT22;16382;59.942;30.472;2024-03-29T04:10:19;9.50;51.70
29403;DHT22;16382;59.942;30.472;2024-03-29T04:12:50;9.40;61.60
29403;DHT22;16382;59.942;30.472;2024-03-29T04:15:17;9.40;51.80
29403;DHT22;16382;59.942;30.472;2024-03-29T04:17:47;9.50;52.20
29403;DHT22;16382;59.942;30.472;2024-03-29T04:20:28;9.80;60.30
29403;DHT22;16382;59.942;30.472;2024-03-29T04:22:56;9.50;52.30
29403;DHT22;16382;59.942;30.472;2024-03-29T04:25:33;9.50;53.50
29403;DHT22;16382;59.942;30.472;2024-03-29T04:28:01;11.10;52.80
29403;DHT22;16382;59.942;30.472;2024-03-29T04:30:28;9.50;53.20
29403;DHT22;16382;59.942;30.472;2024-03-29T04:32:55;9.70;52.00
29403;DHT22;16382;59.942;30.472;2024-03-29T04:35:26;9.50;52.10
29403;DHT22;16382;59.942;30.472;2024-03-29T04:37:54;9.60;52.20
29403;DHT22;16382;59.942;30.472;2024-03-29T04:40:21;9.50;52.20
29403;DHT22;16382;59.942;30.472;2024-03-29T04:42:49;9.50;52.30
29403;DHT22;16382;59.942;30.472;2024-03-29T04:45:17;9.50;52.40
29403;DHT22;16382;59.942;30.472;2024-03-29T04:47:44;9.50;52.80
29403;DHT22;16382;59.942;30.472;2024-03-29T04:50:18;9.50;52.90
29403;DHT22;16382;59.942;30.472;2024-03-29T04:52:49;9.60;52.10
29403;DHT22;16382;59.942;30.472;2024-03-29T04:55:17;9.50;52.90
29403;DHT22;16382;59.942;30.472;2024-03-29T04:57:46;9.70;55.00
29403;DHT22;16382;59.942;30.472;2024-03-29T05:00:24;9.50;54.60
29403;DHT22;16382;59.942;30.472;2024-03-29T05:03:02;9.50;52.70
29403;DHT22;16382;59.942;30.472;2024-03-29T05:05:38;9.50;54.60
29403;DHT22;16382;59.942;30.472;2024-03-29T05:08:20;9.50;52.60
29403;DHT22;16382;59.942;30.472;2024-03-29T05:11:01;9.10;60.90
29403;DHT22;16382;59.942;30.472;2024-03-29T05:13:59;9.40;55.40
29403;DHT22;16382;59.942;30.472;2024-03-29T05:16:43;10.00;60.80
29403;DHT22;16382;59.942;30.472;2024-03-29T05:19:34;7.70;53.50
29403;DHT22;16382;59.942;30.472;2024-03-29T05:22:21;9.60;57.00
29403;DHT22;16382;59.942;30.472;2024-03-29T05:25:07;9.60;54.90
29403;DHT22;16382;59.942;30.472;2024-03-29T05:28:00;9.60;55.20
29403;DHT22;16382;59.942;30.472;2024-03-29T05:30:30;10.60;56.20
29403;DHT22;16382;59.942;30.472;2024-03-29T05:33:18;8.50;55.30
29403;DHT22;16382;59.942;30.472;2024-03-29T05:35:58;9.90;61.10
29403;DHT22;16382;59.942;30.472;2024-03-29T05:38:47;9.80;56.30
29403;DHT22;16382;59.942;30.472;2024-03-29T05:41:23;8.70;55.20
29403;DHT22;16382;59.942;30.472;2024-03-29T05:44:07;9.80;56.50
29403;DHT22;16382;59.942;30.472;2024-03-29T05:49:14;9.70;53.10
29403;DHT22;16382;59.942;30.472;2024-03-29T05:51:52;10.00;57.40
29403;DHT22;16382;59.942;30.472;2024-03-29T05:54:38;9.30;55.90
29403;DHT22;16382;59.942;30.472;2024-03-29T05:57:15;10.40;61.20
29403;DHT22;16382;59.942;30.472;2024-03-29T05:59:47;10.00;55.90
29403;DHT22;16382;59.942;30.472;2024-03-29T06:02:32;10.00;54.60
29403;DHT22;16382;59.942;30.472;2024-03-29T06:05:36;10.30;56.30
29403;DHT22;16382;59.942;30.472;2024-03-29T06:09:04;10.30;55.80
29403;DHT22;16382;59.942;30.472;2024-03-29T06:12:23;10.20;52.50
29403;DHT22;16382;59.942;30.472;2024-03-29T06:19:14;10.70;55.40
29403;DHT22;16382;59.942;30.472;2024-03-29T06:22:59;10.50;52.20
29403;DHT22;16382;59.942;30.472;2024-03-29T06:25:53;10.60;52.30
29403;DHT22;16382;59.942;30.472;2024-03-29T06:29:05;10.80;51.80
29403;DHT22;16382;59.942;30.472;2024-03-29T06:32:19;11.30;53.80
29403;DHT22;16382;59.942;30.472;2024-03-29T06:37:16;10.70;57.90
29403;DHT22;16382;59.942;30.472;2024-03-29T06:40:07;10.90;53.50
29403;DHT22;16382;59.942;30.472;2024-03-29T06:43:41;12.00;52.60
29403;DHT22;16382;59.942;30.472;2024-03-29T07:02:38;17.80;40.70
29403;DHT22;16382;59.942;30.472;2024-03-29T07:05:59;18.10;39.00
29403;DHT22;16382;59.942;30.472;2024-03-29T07:08:58;18.00;39.40
29403;DHT22;16382;59.942;30.472;2024-03-29T07:11:32;18.40;38.40
29403;DHT22;16382;59.942;30.472;2024-03-29T07:14:04;18.20;38.20
29403;DHT22;16382;59.942;30.472;2024-03-29T07:16:58;16.80;39.70
29403;DHT22;16382;59.942;30.472;2024-03-29T07:19:52;18.00;43.50
29403;DHT22;16382;59.942;30.472;2024-03-29T07:22:25;15.80;44.90
29403;DHT22;16382;59.942;30.472;2024-03-29T07:24:56;15.40;44.60
29403;DHT22;16382;59.942;30.472;2024-03-29T07:28:36;14.60;44.00
29403;DHT22;16382;59.942;30.472;2024-03-29T07:32:27;14.90;44.70
29403;DHT22;16382;59.942;30.472;2024-03-29T07:38:52;17.60;41.10
29403;DHT22;16382;59.942;30.472;2024-03-29T07:43:08;18.40;38.80
29403;DHT22;16382;59.942;30.472;2024-03-29T07:50:19;19.20;37.00
29403;DHT22;16382;59.942;30.472;2024-03-29T07:54:08;19.40;36.70
29403;DHT22;16382;59.942;30.472;2024-03-29T07:56:56;19.40;38.10
29403;DHT22;16382;59.942;30.472;2024-03-29T07:59:27;19.20;38.20
29403;DHT22;16382;59.942;30.472;2024-03-29T08:01:58;19.60;40.40
29403;DHT22;16382;59.942;30.472;2024-03-29T08:04:28;19.10;37.00
29403;DHT22;16382;59.942;30.472;2024-03-29T08:06:59;18.90;38.10
29403;DHT22;16382;59.942;30.472;2024-03-29T08:09:37;19.10;39.90
29403;DHT22;16382;59.942;30.472;2024-03-29T08:12:09;20.00;38.40
29403;DHT22;16382;59.942;30.472;2024-03-29T08:17:21;16.80;40.10
29403;DHT22;16382;59.942;30.472;2024-03-29T08:19:49;16.70;42.70
29403;DHT22;16382;59.942;30.472;2024-03-29T08:24:49;15.00;45.80
29403;DHT22;16382;59.942;30.472;2024-03-29T08:32:35;14.70;44.60
29403;DHT22;16382;59.942;30.472;2024-03-29T08:38:06;14.40;45.90
29403;DHT22;16382;59.942;30.472;2024-03-29T08:42:11;14.20;46.20
29403;DHT22;16382;59.942;30.472;2024-03-29T08:45:26;14.00;46.90
29403;DHT22;16382;59.942;30.472;2024-03-29T09:19:42;22.30;34.00
29403;DHT22;16382;59.942;30.472;2024-03-29T09:22:55;22.40;34.20
29403;DHT22;16382;59.942;30.472;2024-03-29T09:26:06;18.70;40.90
29403;DHT22;16382;59.942;30.472;2024-03-29T09:29:41;18.70;39.80
29403;DHT22;16382;59.942;30.472;2024-03-29T09:37:32;16.20;42.30
29403;DHT22;16382;59.942;30.472;2024-03-29T09:41:18;16.10;47.20
29403;DHT22;16382;59.942;30.472;2024-03-29T09:44:18;15.40;44.50
29403;DHT22;16382;59.942;30.472;2024-03-29T09:47:53;15.10;47.30
29403;DHT22;16382;59.942;30.472;2024-03-29T09:50:49;14.60;50.40
29403;DHT22;16382;59.942;30.472;2024-03-29T09:57:29;14.30;47.50
29403;DHT22;16382;59.942;30.472;2024-03-29T10:02:38;14.30;47.60
29403;DHT22;16382;59.942;30.472;2024-03-29T10:05:25;14.30;50.20
29403;DHT22;16382;59.942;30.472;2024-03-29T10:08:58;14.40;47.90
29403;DHT22;16382;59.942;30.472;2024-03-29T10:12:06;14.50;47.30
29403;DHT22;16382;59.942;30.472;2024-03-29T10:14:55;14.40;47.40
29403;DHT22;16382;59.942;30.472;2024-03-29T10:17:32;14.50;48.60
29403;DHT22;16382;59.942;30.472;2024-03-29T10:20:00;14.50;48.80
29403;DHT22;16382;59.942;30.472;2024-03-29T10:22:36;14.70;49.40
29403;DHT22;16382;59.942;30.472;2024-03-29T10:25:07;14.90;47.20
29403;DHT22;16382;59.942;30.472;2024-03-29T10:27:39;15.00;47.20
29403;DHT22;16382;59.942;30.472;2024-03-29T10:30:09;14.90;47.40
29403;DHT22;16382;59.942;30.472;2024-03-29T10:32:43;14.80;47.30
29403;DHT22;16382;59.942;30.472;2024-03-29T10:35:13;14.90;47.30
29403;DHT22;16382;59.942;30.472;2024-03-29T10:37:43;14.80;47.70
29403;DHT22;16382;59.942;30.472;2024-03-29T10:40:22;14.90;47.40
29403;DHT22;16382;59.942;30.472;2024-03-29T10:42:57;15.00;47.30
29403;DHT22;16382;59.942;30.472;2024-03-29T10:45:54;15.00;47.60
29403;DHT22;16382;59.942;30.472;2024-03-29T10:48:32;15.00;48.00
29403;DHT22;16382;59.942;30.472;2024-03-29T10:51:07;15.50;53.00
29403;DHT22;16382;59.942;30.472;2024-03-29T10:53:44;15.00;48.10
29403;DHT22;16382;59.942;30.472;2024-03-29T10:56:22;14.30;48.00
29403;DHT22;16382;59.942;30.472;2024-03-29T10:58:54;15.20;47.90
29403;DHT22;16382;59.942;30.472;2024-03-29T11:01:26;15.90;45.30
29403;DHT22;16382;59.942;30.472;2024-03-29T11:04:22;16.10;47.90
29403;DHT22;16382;59.942;30.472;2024-03-29T11:06:51;16.20;46.40
29403;DHT22;16382;59.942;30.472;2024-03-29T11:09:33;16.50;45.40
29403;DHT22;16382;59.942;30.472;2024-03-29T11:12:58;17.10;43.60
29403;DHT22;16382;59.942;30.472;2024-03-29T11:15:58;16.80;47.40
29403;DHT22;16382;59.942;30.472;2024-03-29T11:19:05;17.20;46.80
29403;DHT22;16382;59.942;30.472;2024-03-29T11:21:40;17.30;43.20
29403;DHT22;16382;59.942;30.472;2024-03-29T11:24:15;16.70;44.80
29403;DHT22;16382;59.942;30.472;2024-03-29T11:26:45;17.20;43.70
29403;DHT22;16382;59.942;30.472;2024-03-29T11:29:48;17.00;44.00
29403;DHT22;16382;59.942;30.472;2024-03-29T11:33:44;16.60;44.60
29403;DHT22;16382;59.942;30.472;2024-03-29T11:36:45;16.60;49.10
29403;DHT22;16382;59.942;30.472;2024-03-29T11:39:54;16.60;49.00
29403;DHT22;16382;59.942;30.472;2024-03-29T11:42:36;16.70;47.40
29403;DHT22;16382;59.942;30.472;2024-03-29T11:45:05;16.80;45.20
29403;DHT22;16382;59.942;30.472;2024-03-29T11:47:36;17.00;44.90
29403;DHT22;16382;59.942;30.472;2024-03-29T11:50:06;17.30;44.10
29403;DHT22;16382;59.942;30.472;2024-03-29T11:52:37;18.10;48.00
29403;DHT22;16382;59.942;30.472;2024-03-29T11:55:05;19.30;46.00
29403;DHT22;16382;59.942;30.472;2024-03-29T11:57:36;19.10;42.50
29403;DHT22;16382;59.942;30.472;2024-03-29T12:00:07;20.50;40.00
29403;DHT22;16382;59.942;30.472;2024-03-29T12:02:39;21.40;38.00
29403;DHT22;16382;59.942;30.472;2024-03-29T12:05:07;21.90;37.10
29403;DHT22;16382;59.942;30.472;2024-03-29T12:07:38;22.10;36.40
29403;DHT22;16382;59.942;30.472;2024-03-29T12:10:09;22.20;37.10
29403;DHT22;16382;59.942;30.472;2024-03-29T12:12:36;22.80;35.70
29403;DHT22;16382;59.942;30.472;2024-03-29T12:15:08;23.40;35.00
29403;DHT22;16382;59.942;30.472;2024-03-29T12:17:36;24.20;33.70
29403;DHT22;16382;59.942;30.472;2024-03-29T12:20:05;24.70;32.50
29403;DHT22;16382;59.942;30.472;2024-03-29T12:22:39;24.80;32.60
29403;DHT22;16382;59.942;30.472;2024-03-29T12:25:07;25.00;31.80
29403;DHT22;16382;59.942;30.472;2024-03-29T12:27:35;24.80;31.90
29403;DHT22;16382;59.942;30.472;2024-03-29T12:30:04;24.60;32.40
29403;DHT22;16382;59.942;30.472;2024-03-29T12:32:34;24.30;32.30
29403;DHT22;16382;59.942;30.472;2024-03-29T12:35:09;23.80;33.50
29403;DHT22;16382;59.942;30.472;2024-03-29T12:37:47;23.90;33.20
29403;DHT22;16382;59.942;30.472;2024-03-29T12:40:31;24.10;33.90
29403;DHT22;16382;59.942;30.472;2024-03-29T12:47:11;23.80;33.90
29403;DHT22;16382;59.942;30.472;2024-03-29T12:50:02;23.60;36.10
29403;DHT22;16382;59.942;30.472;2024-03-29T12:57:21;22.30;37.30
29403;DHT22;16382;59.942;30.472;2024-03-29T13:01:38;21.00;39.00
29403;DHT22;16382;59.942;30.472;2024-03-29T13:04:56;19.40;40.00
29403;DHT22;16382;59.942;30.472;2024-03-29T13:08:27;19.40;39.80
29403;DHT22;16382;59.942;30.472;2024-03-29T13:15:36;18.90;43.20
29403;DHT22;16382;59.942;30.472;2024-03-29T13:23:19;18.90;44.10
29403;DHT22;16382;59.942;30.472;2024-03-29T13:26:40;18.50;42.40
29403;DHT22;16382;59.942;30.472;2024-03-29T13:30:25;18.30;42.60
29403;DHT22;16382;59.942;30.472;2024-03-29T13:33:45;18.30;42.20
29403;DHT22;16382;59.942;30.472;2024-03-29T13:37:18;18.00;43.10
29403;DHT22;16382;59.942;30.472;2024-03-29T13:40:26;18.00;43.50
29403;DHT22;16382;59.942;30.472;2024-03-29T13:44:08;17.90;43.40
29403;DHT22;16382;59.942;30.472;2024-03-29T13:48:06;17.70;43.50
29403;DHT22;16382;59.942;30.472;2024-03-29T13:51:49;17.40;46.20
29403;DHT22;16382;59.942;30.472;2024-03-29T13:55:25;17.40;44.20
29403;DHT22;16382;59.942;30.472;2024-03-29T14:02:12;16.90;47.80
29403;DHT22;16382;59.942;30.472;2024-03-29T14:08:04;17.10;48.30
29403;DHT22;16382;59.942;30.472;2024-03-29T14:10:07;17.00;45.50
29403;DHT22;16382;59.942;30.472;2024-03-29T14:13:31;16.90;45.80
29403;DHT22;16382;59.942;30.472;2024-03-29T14:20:33;16.80;47.60
29403;DHT22;16382;59.942;30.472;2024-03-29T14:23:28;16.80;47.90
29403;DHT22;16382;59.942;30.472;2024-03-29T14:25:57;16.80;48.70
29403;DHT22;16382;59.942;30.472;2024-03-29T14:28:24;16.60;48.60
29403;DHT22;16382;59.942;30.472;2024-03-29T14:30:52;16.60;51.10
29403;DHT22;16382;59.942;30.472;2024-03-29T14:33:23;16.40;49.90
29403;DHT22;16382;59.942;30.472;2024-03-29T14:35:51;15.60;51.20
29403;DHT22;16382;59.942;30.472;2024-03-29T14:38:19;16.00;50.50
29403;DHT22;16382;59.942;30.472;2024-03-29T14:40:50;16.00;50.30
29403;DHT22;16382;59.942;30.472;2024-03-29T14:43:25;16.10;50.90
29403;DHT22;16382;59.942;30.472;2024-03-29T14:45:53;16.00;49.00
29403;DHT22;16382;59.942;30.472;2024-03-29T14:50:51;15.60;51.90
29403;DHT22;16382;59.942;30.472;2024-03-29T14:55:48;15.70;49.00
29403;DHT22;16382;59.942;30.472;2024-03-29T14:58:16;15.60;49.90
29403;DHT22;16382;59.942;30.472;2024-03-29T15:00:45;15.50;50.30
29403;DHT22;16382;59.942;30.472;2024-03-29T15:03:17;15.20;51.10
29403;DHT22;16382;59.942;30.472;2024-03-29T15:05:44;15.10;51.30
29403;DHT22;16382;59.942;30.472;2024-03-29T15:08:12;14.90;52.20
29403;DHT22;16382;59.942;30.472;2024-03-29T15:10:43;14.80;52.00
29403;DHT22;16382;59.942;30.472;2024-03-29T15:13:10;14.60;52.20
29403;DHT22;16382;59.942;30.472;2024-03-29T15:15:41;14.50;52.80
29403;DHT22;16382;59.942;30.472;2024-03-29T15:18:26;14.30;53.00
29403;DHT22;16382;59.942;30.472;2024-03-29T15:21:06;13.40;58.00
29403;DHT22;16382;59.942;30.472;2024-03-29T15:23:49;15.00;54.50
29403;DHT22;16382;59.942;30.472;2024-03-29T15:26:46;13.90;55.90
29403;DHT22;16382;59.942;30.472;2024-03-29T15:30:02;14.10;57.80
29403;DHT22;16382;59.942;30.472;2024-03-29T15:32:42;14.60;63.80
29403;DHT22;16382;59.942;30.472;2024-03-29T15:35:16;13.20;65.00
29403;DHT22;16382;59.942;30.472;2024-03-29T15:38:04;12.80;61.00
29403;DHT22;16382;59.942;30.472;2024-03-29T15:41:04;12.10;68.50
29403;DHT22;16382;59.942;30.472;2024-03-29T15:43:59;12.10;63.60
29403;DHT22;16382;59.942;30.472;2024-03-29T15:47:23;11.60;64.10
29403;DHT22;16382;59.942;30.472;2024-03-29T15:50:22;12.10;70.20
29403;DHT22;16382;59.942;30.472;2024-03-29T15:53:47;11.90;68.80
29403;DHT22;16382;59.942;30.472;2024-03-29T15:57:21;11.70;73.50
29403;DHT22;16382;59.942;30.472;2024-03-29T16:00:49;11.50;83.00
29403;DHT22;16382;59.942;30.472;2024-03-29T16:03:43;10.90;87.30
29403;DHT22;16382;59.942;30.472;2024-03-29T16:06:30;11.60;76.10
29403;DHT22;16382;59.942;30.472;2024-03-29T16:09:13;11.00;80.90
29403;DHT22;16382;59.942;30.472;2024-03-29T16:12:41;10.50;88.00
29403;DHT22;16382;59.942;30.472;2024-03-29T16:15:24;10.70;77.90
29403;DHT22;16382;59.942;30.472;2024-03-29T16:18:15;10.70;80.00
29403;DHT22;16382;59.942;30.472;2024-03-29T16:20:45;11.00;79.70
29403;DHT22;16382;59.942;30.472;2024-03-29T16:23:17;10.60;80.80
29403;DHT22;16382;59.942;30.472;2024-03-29T16:25:52;10.60;80.50
29403;DHT22;16382;59.942;30.472;2024-03-29T16:28:40;10.90;83.20
29403;DHT22;16382;59.942;30.472;2024-03-29T16:31:19;10.50;82.60
29403;DHT22;16382;59.942;30.472;2024-03-29T16:33:54;10.50;81.80
29403;DHT22;16382;59.942;30.472;2024-03-29T16:36:45;10.60;83.80
29403;DHT22;16382;59.942;30.472;2024-03-29T16:39:14;10.60;83.60
29403;DHT22;16382;59.942;30.472;2024-03-29T16:41:45;9.20;84.30
29403;DHT22;16382;59.942;30.472;2024-03-29T16:44:51;10.60;82.60
29403;DHT22;16382;59.942;30.472;2024-03-29T16:48:07;10.60;91.60
29403;DHT22;16382;59.942;30.472;2024-03-29T16:54:15;10.80;92.00
29403;DHT22;16382;59.942;30.472;2024-03-29T16:56:52;10.70;82.30
29403;DHT22;16382;59.942;30.472;2024-03-29T17:00:24;10.70;83.40
29403;DHT22;16382;59.942;30.472;2024-03-29T17:03:15;10.50;84.00
29403;DHT22;16382;59.942;30.472;2024-03-29T17:06:27;11.40;82.70
29403;DHT22;16382;59.942;30.472;2024-03-29T17:09:51;10.30;85.10
29403;DHT22;16382;59.942;30.472;2024-03-29T17:12:32;11.60;84.00
29403;DHT22;16382;59.942;30.472;2024-03-29T17:15:00;10.20;86.00
29403;DHT22;16382;59.942;30.472;2024-03-29T17:17:31;10.10;83.60
29403;DHT22;16382;59.942;30.472;2024-03-29T17:19:59;10.20;84.40
29403;DHT22;16382;59.942;30.472;2024-03-29T17:23:19;10.20;83.40
29403;DHT22;16382;59.942;30.472;2024-03-29T17:29:22;10.40;94.30
29403;DHT22;16382;59.942;30.472;2024-03-29T17:32:35;9.70;89.60
29403;DHT22;16382;59.942;30.472;2024-03-29T17:51:56;9.40;91.40
29403;DHT22;16382;59.942;30.472;2024-03-29T17:56:30;9.00;91.30
29403;DHT22;16382;59.942;30.472;2024-03-29T19:05:37;9.30;92.20
29403;DHT22;16382;59.942;30.472;2024-03-29T19:22:08;8.80;83.80
29403;DHT22;16382;59.942;30.472;2024-03-29T19:24:52;8.60;83.20
29403;DHT22;16382;59.942;30.472;2024-03-29T19:27:19;8.50;83.50
29403;DHT22;16382;59.942;30.472;2024-03-29T19:30:00;8.50;84.60
29403;DHT22;16382;59.942;30.472;2024-03-29T19:32:34;8.40;83.20
29403;DHT22;16382;59.942;30.472;2024-03-29T19:35:03;8.20;93.40
29403;DHT22;16382;59.942;30.472;2024-03-29T19:37:32;8.30;82.90
29403;DHT22;16382;59.942;30.472;2024-03-29T19:40:02;8.30;82.50
29403;DHT22;16382;59.942;30.472;2024-03-29T19:42:30;8.20;82.90
29403;DHT22;16382;59.942;30.472;2024-03-29T19:44:59;8.30;91.00
29403;DHT22;16382;59.942;30.472;2024-03-29T19:47:26;8.30;83.50
29403;DHT22;16382;59.942;30.472;2024-03-29T19:49:55;8.50;91.00
29403;DHT22;16382;59.942;30.472;2024-03-29T19:52:24;8.20;83.40
29403;DHT22;16382;59.942;30.472;2024-03-29T19:54:55;8.20;87.30
29403;DHT22;16382;59.942;30.472;2024-03-29T19:59:50;8.50;90.70
29403;DHT22;16382;59.942;30.472;2024-03-29T20:02:20;8.00;84.80
29403;DHT22;16382;59.942;30.472;2024-03-29T20:04:49;8.10;82.60
29403;DHT22;16382;59.942;30.472;2024-03-29T20:07:22;7.70;90.30
29403;DHT22;16382;59.942;30.472;2024-03-29T20:09:52;6.60;82.90
29403;DHT22;16382;59.942;30.472;2024-03-29T20:12:21;8.20;83.10
29403;DHT22;16382;59.942;30.472;2024-03-29T20:14:47;8.00;82.80
29403;DHT22;16382;59.942;30.472;2024-03-29T20:17:16;8.00;82.30
29403;DHT22;16382;59.942;30.472;2024-03-29T20:19:42;8.00;82.70
29403;DHT22;16382;59.942;30.472;2024-03-29T20:22:10;7.80;82.10
29403;DHT22;16382;59.942;30.472;2024-03-29T20:24:36;7.70;82.30
29403;DHT22;16382;59.942;30.472;2024-03-29T20:27:04;7.70;82.90
29403;DHT22;16382;59.942;30.472;2024-03-29T20:29:33;7.70;82.30
29403;DHT22;16382;59.942;30.472;2024-03-29T20:32:01;7.50;82.90
29403;DHT22;16382;59.942;30.472;2024-03-29T20:34:32;7.50;82.80
29403;DHT22;16382;59.942;30.472;2024-03-29T20:37:00;7.40;82.60
29403;DHT22;16382;59.942;30.472;2024-03-29T20:39:47;7.10;82.60
29403;DHT22;16382;59.942;30.472;2024-03-29T20:42:15;7.30;86.40
29403;DHT22;16382;59.942;30.472;2024-03-29T20:44:45;7.40;86.60
29403;DHT22;16382;59.942;30.472;2024-03-29T20:47:13;7.20;85.90
29403;DHT22;16382;59.942;30.472;2024-03-29T20:49:40;7.10;84.70
29403;DHT22;16382;59.942;30.472;2024-03-29T20:52:10;7.10;88.50
29403;DHT22;16382;59.942;30.472;2024-03-29T20:54:36;7.00;83.90
29403;DHT22;16382;59.942;30.472;2024-03-29T20:57:05;7.00;84.20
29403;DHT22;16382;59.942;30.472;2024-03-29T20:59:31;6.90;83.80
29403;DHT22;16382;59.942;30.472;2024-03-29T21:02:02;6.90;84.20
29403;DHT22;16382;59.942;30.472;2024-03-29T21:04:49;6.90;84.30
29403;DHT22;16382;59.942;30.472;2024-03-29T21:07:34;5.60;83.50
29403;DHT22;16382;59.942;30.472;2024-03-29T21:10:02;6.80;84.40
29403;DHT22;16382;59.942;30.472;2024-03-29T21:12:29;6.70;84.20
29403;DHT22;16382;59.942;30.472;2024-03-29T21:14:58;6.70;84.60
29403;DHT22;16382;59.942;30.472;2024-03-29T21:17:30;6.80;84.40